createdAt,value
2023-01-29T00:01:39.976Z,52.67
2023-01-29T00:04:10.341Z,52.90
2023-01-29T00:06:44.075Z,53.02
2023-01-29T00:09:14.984Z,53.40
2023-01-29T00:11:45.494Z,53.46
2023-01-29T00:14:16.150Z,53.95
2023-01-29T00:16:46.395Z,54.57
2023-01-29T00:19:17.752Z,54.47
2023-01-29T00:21:50.492Z,55.30
2023-01-29T00:24:20.916Z,55.64
2023-01-29T00:26:51.113Z,56.07
2023-01-29T00:29:22.170Z,56.95
2023-01-29T00:31:53.169Z,57.02
2023-01-29T00:34:23.731Z,57.00
2023-01-29T00:37:04.983Z,57.54
2023-01-29T00:39:47.388Z,57.70
2023-01-29T00:42:30.213Z,58.19
2023-01-29T00:45:00.550Z,58.15
2023-01-29T00:47:33.968Z,58.27
2023-01-29T00:50:06.998Z,58.41
2023-01-29T00:52:41.135Z,58.76
2023-01-29T00:55:13.548Z,59.21
2023-01-29T00:57:43.712Z,59.19
2023-01-29T01:00:18.010Z,59.41
2023-01-29T01:03:01.716Z,59.95
2023-01-29T01:05:32.319Z,59.82
2023-01-29T01:08:25.354Z,60.09
2023-01-29T01:10:59.977Z,60.40
2023-01-29T01:13:30.186Z,60.64
2023-01-29T01:16:00.524Z,60.39
2023-01-29T01:18:33.002Z,60.41
2023-01-29T01:21:04.379Z,60.53
2023-01-29T01:23:37.812Z,60.82
2023-01-29T01:26:12.514Z,60.82
2023-01-29T01:28:42.745Z,60.95
2023-01-29T01:31:14.776Z,60.80
2023-01-29T01:33:45.123Z,61.00
2023-01-29T01:36:16.191Z,61.41
2023-01-29T01:38:49.564Z,61.51
2023-01-29T01:41:23.152Z,61.73
2023-01-29T01:43:55.699Z,61.62
2023-01-29T01:46:26.331Z,60.97
2023-01-29T01:49:01.956Z,61.23
2023-01-29T01:51:35.595Z,60.79
2023-01-29T01:54:11.004Z,60.99
2023-01-29T01:56:45.802Z,61.42
2023-01-29T01:59:19.452Z,61.49
2023-01-29T02:01:54.312Z,61.45
2023-01-29T02:04:40.871Z,61.35
2023-01-29T02:07:27.823Z,61.98
2023-01-29T02:10:10.695Z,61.74
2023-01-29T02:12:45.012Z,62.05
2023-01-29T02:15:16.631Z,62.01
2023-01-29T02:17:48.718Z,62.22
2023-01-29T02:20:26.054Z,62.25
2023-01-29T02:23:17.011Z,62.26
2023-01-29T02:26:07.686Z,62.55
2023-01-29T02:28:45.512Z,62.13
2023-01-29T02:31:23.827Z,62.21
2023-01-29T02:34:04.072Z,62.13
2023-01-29T02:36:41.486Z,62.09
2023-01-29T02:39:20.560Z,62.27
2023-01-29T02:42:01.783Z,62.54
2023-01-29T02:44:41.684Z,62.47
2023-01-29T02:47:18.258Z,62.54
2023-01-29T02:49:54.252Z,62.84
2023-01-29T02:52:29.490Z,62.58
2023-01-29T02:55:05.048Z,62.63
2023-01-29T02:57:39.064Z,63.05
2023-01-29T03:03:36.716Z,62.20
2023-01-29T03:06:18.354Z,62.89
2023-01-29T03:08:52.645Z,62.49
2023-01-29T03:11:24.126Z,61.94
2023-01-29T03:14:01.017Z,61.83
2023-01-29T03:16:37.470Z,61.11
2023-01-29T03:19:16.494Z,61.25
2023-01-29T03:21:59.148Z,60.67
2023-01-29T03:24:49.481Z,60.93
2023-01-29T03:27:36.522Z,61.00
2023-01-29T03:30:23.137Z,60.88
2023-01-29T03:32:56.514Z,60.70
2023-01-29T03:35:36.791Z,60.69
2023-01-29T03:38:10.124Z,60.15
2023-01-29T03:40:49.513Z,60.21
2023-01-29T03:43:29.544Z,60.11
2023-01-29T03:46:08.561Z,60.13
2023-01-29T03:48:42.518Z,60.19
2023-01-29T03:51:31.268Z,59.91
2023-01-29T03:54:10.478Z,60.47
2023-01-29T03:56:52.774Z,60.01
2023-01-29T03:59:36.722Z,59.78
2023-01-29T04:02:10.452Z,60.28
2023-01-29T04:04:42.015Z,59.89
2023-01-29T04:07:19.349Z,60.18
2023-01-29T04:09:53.678Z,59.89
2023-01-29T04:12:29.410Z,60.24
2023-01-29T04:15:03.151Z,60.14
2023-01-29T04:17:40.202Z,59.88
2023-01-29T04:20:12.680Z,59.78
2023-01-29T04:22:49.095Z,59.53
2023-01-29T04:25:26.781Z,59.84
2023-01-29T04:28:08.907Z,59.37
2023-01-29T04:30:47.016Z,59.73
2023-01-29T04:33:30.444Z,59.67
2023-01-29T04:36:19.210Z,59.43
2023-01-29T04:39:04.993Z,59.99
2023-01-29T04:41:41.081Z,59.62
2023-01-29T04:44:19.016Z,59.44
2023-01-29T04:46:55.847Z,59.35
2023-01-29T04:49:35.653Z,59.82
2023-01-29T04:52:15.040Z,59.56
2023-01-29T04:54:57.500Z,59.49
2023-01-29T04:57:32.933Z,59.15
2023-01-29T05:00:12.306Z,59.42
2023-01-29T05:02:47.813Z,59.59
2023-01-29T05:05:21.828Z,59.71
2023-01-29T05:07:52.148Z,59.74
2023-01-29T05:10:27.248Z,59.80
2023-01-29T05:13:11.863Z,59.56
2023-01-29T05:15:45.168Z,59.39
2023-01-29T05:18:15.840Z,59.98
2023-01-29T05:20:50.255Z,60.09
2023-01-29T05:23:21.477Z,60.00
2023-01-29T05:25:57.870Z,60.20
2023-01-29T05:28:25.616Z,60.17
2023-01-29T05:30:58.021Z,60.61
2023-01-29T05:33:30.457Z,60.45
2023-01-29T05:36:02.750Z,60.66
2023-01-29T05:38:33.127Z,60.43
2023-01-29T05:41:06.199Z,60.44
2023-01-29T05:43:36.481Z,60.37
2023-01-29T05:46:07.718Z,60.25
2023-01-29T05:48:38.596Z,60.18
2023-01-29T05:51:09.100Z,60.21
2023-01-29T05:53:39.765Z,59.45
2023-01-29T05:56:12.858Z,60.46
2023-01-29T05:58:44.326Z,60.17
2023-01-29T06:01:17.044Z,60.18
2023-01-29T06:03:47.736Z,59.91
2023-01-29T06:06:18.568Z,60.25
2023-01-29T06:08:48.949Z,59.87
2023-01-29T06:11:22.078Z,60.00
2023-01-29T06:13:53.173Z,59.85
2023-01-29T06:16:23.554Z,59.84
2023-01-29T06:18:53.761Z,60.36
2023-01-29T06:21:24.049Z,60.09
2023-01-29T06:23:55.632Z,60.18
2023-01-29T06:26:28.457Z,60.35
2023-01-29T06:29:01.579Z,59.40
2023-01-29T06:31:38.749Z,59.54
2023-01-29T06:34:10.493Z,59.37
2023-01-29T06:36:41.923Z,59.45
2023-01-29T06:39:17.453Z,59.56
2023-01-29T06:41:50.195Z,59.26
2023-01-29T06:44:20.555Z,59.26
2023-01-29T06:46:50.674Z,59.29
2023-01-29T06:49:20.941Z,59.09
2023-01-29T06:51:51.207Z,59.32
2023-01-29T06:54:21.558Z,59.09
2023-01-29T06:56:54.759Z,58.70
2023-01-29T06:59:25.143Z,59.07
2023-01-29T07:01:55.400Z,58.37
2023-01-29T07:04:25.745Z,58.70
2023-01-29T07:06:56.168Z,59.16
2023-01-29T07:09:27.303Z,58.63
2023-01-29T07:12:00.218Z,58.74
2023-01-29T07:14:30.541Z,58.72
2023-01-29T07:17:00.846Z,58.87
2023-01-29T07:19:31.053Z,59.08
2023-01-29T07:22:04.637Z,59.15
2023-01-29T07:24:35.326Z,59.13
2023-01-29T07:27:08.234Z,59.08
2023-01-29T07:29:38.647Z,58.78
2023-01-29T07:32:09.099Z,58.39
2023-01-29T07:34:41.410Z,58.76
2023-01-29T07:37:11.817Z,58.37
2023-01-29T07:39:42.637Z,58.31
2023-01-29T07:42:15.671Z,58.34
2023-01-29T07:44:46.363Z,58.20
2023-01-29T07:47:19.202Z,58.33
2023-01-29T07:49:49.755Z,58.85
2023-01-29T07:52:22.164Z,59.03
2023-01-29T07:54:52.657Z,58.77
2023-01-29T07:57:26.213Z,58.86
2023-01-29T07:59:56.633Z,58.64
2023-01-29T08:02:30.031Z,58.66
2023-01-29T08:05:00.403Z,58.38
2023-01-29T08:07:30.621Z,58.80
2023-01-29T08:10:02.472Z,58.71
2023-01-29T08:12:37.749Z,58.44
2023-01-29T08:15:08.837Z,58.32
2023-01-29T08:17:56.146Z,58.28
2023-01-29T08:20:28.471Z,58.17
2023-01-29T08:23:03.457Z,58.46
2023-01-29T08:25:33.983Z,58.06
2023-01-29T08:28:07.382Z,58.02
2023-01-29T08:30:38.661Z,58.43
2023-01-29T08:33:09.661Z,58.26
2023-01-29T08:35:41.484Z,58.03
2023-01-29T08:38:12.818Z,57.98
2023-01-29T08:40:43.141Z,57.59
2023-01-29T08:43:16.825Z,57.76
2023-01-29T08:45:47.458Z,57.72
2023-01-29T08:48:17.621Z,57.82
2023-01-29T08:50:48.369Z,57.87
2023-01-29T08:53:19.961Z,57.60
2023-01-29T08:55:50.701Z,57.92
2023-01-29T08:58:23.556Z,57.34
2023-01-29T09:00:53.815Z,57.14
2023-01-29T09:03:24.151Z,57.15
2023-01-29T09:05:54.403Z,56.42
2023-01-29T09:08:27.653Z,56.54
2023-01-29T09:10:58.088Z,56.47
2023-01-29T09:13:30.915Z,56.27
2023-01-29T09:16:03.047Z,66.60
2023-01-29T09:18:34.078Z,59.65
2023-01-29T09:21:05.164Z,56.08
2023-01-29T09:23:35.735Z,55.74
2023-01-29T09:26:06.257Z,54.67
2023-01-29T09:28:40.009Z,54.66
2023-01-29T09:31:10.632Z,54.49
2023-01-29T09:33:40.936Z,54.40
2023-01-29T09:36:11.960Z,54.60
2023-01-29T09:38:42.646Z,55.46
2023-01-29T09:41:30.172Z,55.28
2023-01-29T09:44:05.949Z,54.65
2023-01-29T09:46:41.599Z,54.74
2023-01-29T09:49:18.936Z,53.74
2023-01-29T09:51:52.856Z,54.06
2023-01-29T09:54:26.173Z,54.48
2023-01-29T09:56:59.385Z,54.51
2023-01-29T09:59:35.081Z,54.47
2023-01-29T10:02:13.490Z,54.05
2023-01-29T10:05:11.008Z,54.01
2023-01-29T10:07:59.377Z,53.63
2023-01-29T10:10:40.137Z,53.73
2023-01-29T10:13:22.159Z,53.08
2023-01-29T10:16:18.806Z,53.07
2023-01-29T10:19:05.674Z,52.67
2023-01-29T10:21:53.956Z,52.90
2023-01-29T10:24:35.075Z,53.06
2023-01-29T10:27:12.471Z,52.76
2023-01-29T10:29:45.661Z,51.36
2023-01-29T10:32:22.507Z,51.17
2023-01-29T10:34:57.878Z,50.64
2023-01-29T10:37:39.759Z,50.96
2023-01-29T10:40:23.100Z,50.53
2023-01-29T10:43:01.957Z,50.81
2023-01-29T10:45:40.063Z,51.16
2023-01-29T10:48:38.386Z,50.95
2023-01-29T10:51:20.989Z,51.19
2023-01-29T10:54:03.730Z,50.85
2023-01-29T10:56:50.325Z,50.11
2023-01-29T10:59:38.336Z,50.39
2023-01-29T11:02:18.213Z,50.56
2023-01-29T11:04:51.570Z,50.63
2023-01-29T11:07:24.894Z,50.09
2023-01-29T11:10:03.346Z,50.54
2023-01-29T11:12:34.701Z,50.74
2023-01-29T11:15:10.149Z,51.06
2023-01-29T11:17:41.427Z,50.71
2023-01-29T11:20:32.822Z,50.58
2023-01-29T11:23:03.119Z,50.76
2023-01-29T11:25:34.951Z,50.58
2023-01-29T11:28:08.111Z,50.68
2023-01-29T11:30:42.023Z,50.60
2023-01-29T11:33:22.223Z,50.96
2023-01-29T11:35:57.683Z,51.22
2023-01-29T11:38:30.173Z,50.71
2023-01-29T11:41:09.637Z,51.21
2023-01-29T11:43:39.909Z,50.99
2023-01-29T11:46:16.218Z,50.63
2023-01-29T11:48:50.476Z,50.25
2023-01-29T11:51:30.135Z,50.41
2023-01-29T11:54:03.991Z,50.40
2023-01-29T11:56:37.040Z,50.87
2023-01-29T11:59:08.623Z,50.82
2023-01-29T12:01:41.372Z,51.00
2023-01-29T12:04:21.824Z,50.78
2023-01-29T12:06:56.885Z,51.17
2023-01-29T12:09:31.076Z,51.57
2023-01-29T12:12:20.721Z,52.90
2023-01-29T12:15:06.445Z,53.85
2023-01-29T12:17:41.291Z,53.87
2023-01-29T12:20:17.129Z,53.58
2023-01-29T12:22:59.408Z,53.63
2023-01-29T12:25:43.543Z,54.22
2023-01-29T12:28:25.939Z,54.29
2023-01-29T12:31:12.080Z,53.99
2023-01-29T12:33:50.906Z,53.88
2023-01-29T12:36:33.723Z,53.37
2023-01-29T12:39:07.447Z,53.70
2023-01-29T12:41:46.124Z,53.96
2023-01-29T12:44:21.640Z,54.94
2023-01-29T12:46:57.466Z,54.83
2023-01-29T12:49:32.923Z,54.75
2023-01-29T12:52:10.199Z,55.63
2023-01-29T12:54:47.339Z,55.66
2023-01-29T12:57:26.273Z,55.57
2023-01-29T13:00:04.897Z,55.66
2023-01-29T13:02:39.527Z,56.45
2023-01-29T13:05:23.150Z,56.17
2023-01-29T13:08:00.716Z,56.25
2023-01-29T13:10:44.168Z,56.71
2023-01-29T13:13:25.324Z,56.27
2023-01-29T13:15:56.558Z,56.40
2023-01-29T13:18:43.294Z,56.92
2023-01-29T13:21:20.322Z,57.06
2023-01-29T13:23:53.920Z,57.68
2023-01-29T13:26:28.211Z,57.07
2023-01-29T13:28:58.873Z,57.51
2023-01-29T13:31:37.266Z,57.12
2023-01-29T13:34:17.109Z,57.54
2023-01-29T13:36:49.805Z,57.58
2023-01-29T13:39:26.389Z,58.07
2023-01-29T13:42:01.507Z,58.11
2023-01-29T13:44:37.730Z,58.41
2023-01-29T13:47:10.543Z,58.26
2023-01-29T13:49:45.091Z,58.53
2023-01-29T13:52:24.311Z,58.63
2023-01-29T13:55:01.026Z,58.59
2023-01-29T13:57:56.816Z,58.76
2023-01-29T14:01:01.831Z,58.66
2023-01-29T14:04:05.605Z,58.70
2023-01-29T14:06:51.358Z,59.11
2023-01-29T14:09:57.786Z,59.35
2023-01-29T14:12:42.747Z,59.15
2023-01-29T14:15:27.959Z,59.26
2023-01-29T14:18:02.669Z,60.16
2023-01-29T14:20:46.077Z,59.94
2023-01-29T14:23:40.827Z,59.62
2023-01-29T14:26:25.420Z,59.73
2023-01-29T14:29:00.943Z,60.32
2023-01-29T14:31:42.260Z,60.29
2023-01-29T14:34:21.525Z,60.63
2023-01-29T14:36:55.689Z,60.57
2023-01-29T14:39:31.090Z,60.43
2023-01-29T14:42:02.847Z,60.47
2023-01-29T14:45:05.427Z,61.04
2023-01-29T14:48:03.593Z,60.95
2023-01-29T14:50:48.596Z,60.97
2023-01-29T14:53:25.950Z,61.03
2023-01-29T14:56:01.723Z,60.95
2023-01-29T14:58:40.293Z,60.91
2023-01-29T15:01:25.257Z,60.95
2023-01-29T15:04:05.702Z,61.02
2023-01-29T15:06:45.049Z,60.77
2023-01-29T15:09:22.065Z,60.23
2023-01-29T15:12:03.795Z,60.35
2023-01-29T15:14:40.293Z,60.15
2023-01-29T15:17:27.834Z,61.00
2023-01-29T15:20:00.969Z,61.11
2023-01-29T15:22:33.121Z,61.19
2023-01-29T15:25:10.176Z,61.49
2023-01-29T15:27:44.883Z,61.36
2023-01-29T15:30:21.062Z,61.45
2023-01-29T15:32:52.559Z,61.73
2023-01-29T15:35:31.926Z,61.15
2023-01-29T15:38:04.405Z,60.92
2023-01-29T15:40:35.964Z,61.29
2023-01-29T15:43:23.869Z,61.13
2023-01-29T15:45:56.140Z,61.30
2023-01-29T15:48:33.497Z,61.62
2023-01-29T15:51:10.429Z,61.23
2023-01-29T15:53:46.807Z,61.35
2023-01-29T15:56:21.138Z,61.98
2023-01-29T15:58:54.428Z,62.00
2023-01-29T16:01:24.980Z,62.04
2023-01-29T16:03:57.794Z,62.09
2023-01-29T16:06:36.992Z,61.78
2023-01-29T16:09:11.623Z,62.12
2023-01-29T16:11:43.815Z,62.31
2023-01-29T16:14:17.859Z,62.29
2023-01-29T16:16:48.812Z,62.33
2023-01-29T16:19:27.867Z,62.07
2023-01-29T16:22:07.311Z,62.30
2023-01-29T16:24:40.343Z,62.26
2023-01-29T16:27:16.112Z,62.75
2023-01-29T16:29:46.584Z,62.04
2023-01-29T16:32:18.444Z,62.19
2023-01-29T16:34:52.418Z,62.10
2023-01-29T16:37:30.666Z,62.18
2023-01-29T16:40:01.880Z,62.06
2023-01-29T16:42:34.319Z,62.05
2023-01-29T16:45:06.459Z,61.63
2023-01-29T16:47:38.983Z,61.12
2023-01-29T16:50:35.923Z,61.24
2023-01-29T16:53:21.571Z,61.41
2023-01-29T16:55:55.535Z,60.04
2023-01-29T16:58:28.533Z,58.68
2023-01-29T17:01:04.049Z,58.26
2023-01-29T17:03:37.245Z,57.62
2023-01-29T17:06:12.795Z,57.41
2023-01-29T17:08:47.657Z,56.69
2023-01-29T17:11:29.662Z,56.09
2023-01-29T17:14:01.106Z,56.86
2023-01-29T17:16:34.995Z,56.30
2023-01-29T17:19:14.263Z,56.15
2023-01-29T17:21:44.850Z,56.13
2023-01-29T17:24:20.883Z,56.10
2023-01-29T17:26:52.010Z,55.59
2023-01-29T17:29:27.183Z,55.63
2023-01-29T17:32:00.385Z,55.95
2023-01-29T17:34:31.516Z,56.01
2023-01-29T17:37:02.089Z,55.69
2023-01-29T17:39:35.132Z,55.37
2023-01-29T17:42:06.065Z,55.98
2023-01-29T17:44:36.753Z,56.06
2023-01-29T17:47:09.458Z,56.08
2023-01-29T17:49:41.074Z,55.38
2023-01-29T17:52:12.125Z,55.83
2023-01-29T17:54:45.226Z,56.01
2023-01-29T17:57:17.996Z,56.12
2023-01-29T17:59:48.665Z,55.73
2023-01-29T18:02:28.868Z,54.86
2023-01-29T18:04:59.781Z,54.98
2023-01-29T18:07:30.048Z,54.91
2023-01-29T18:10:03.029Z,55.18
2023-01-29T18:12:33.511Z,55.05
2023-01-29T18:15:07.175Z,55.53
2023-01-29T18:17:37.924Z,55.90
2023-01-29T18:20:20.841Z,55.98
2023-01-29T18:22:51.718Z,55.64
2023-01-29T18:25:25.775Z,55.50
2023-01-29T18:27:56.708Z,55.84
2023-01-29T18:30:27.319Z,55.72
2023-01-29T18:32:58.616Z,55.60
2023-01-29T18:35:30.618Z,55.03
2023-01-29T18:38:04.492Z,54.86
2023-01-29T18:40:37.498Z,54.83
2023-01-29T18:43:08.131Z,55.24
2023-01-29T18:45:38.869Z,55.06
2023-01-29T18:48:09.774Z,55.39
2023-01-29T18:50:40.313Z,55.80
2023-01-29T18:53:10.774Z,55.89
2023-01-29T18:55:43.936Z,55.45
2023-01-29T18:58:25.247Z,55.59
2023-01-29T19:00:59.385Z,55.86
2023-01-29T19:03:30.479Z,55.74
2023-01-29T19:06:04.653Z,56.25
2023-01-29T19:08:35.944Z,56.00
2023-01-29T19:11:09.779Z,56.29
2023-01-29T19:13:42.737Z,56.15
2023-01-29T19:16:14.867Z,56.19
2023-01-29T19:18:45.428Z,55.67
2023-01-29T19:21:18.083Z,56.08
2023-01-29T19:23:49.004Z,56.03
2023-01-29T19:26:22.134Z,55.99
2023-01-29T19:28:52.761Z,55.91
2023-01-29T19:31:23.303Z,55.97
2023-01-29T19:33:53.847Z,56.26
2023-01-29T19:36:24.511Z,55.63
2023-01-29T19:38:55.067Z,55.26
2023-01-29T19:41:28.458Z,55.10
2023-01-29T19:43:58.929Z,55.73
2023-01-29T19:46:30.310Z,55.60
2023-01-29T19:49:00.667Z,55.43
2023-01-29T19:51:34.013Z,55.19
2023-01-29T19:54:04.619Z,55.69
2023-01-29T19:56:38.971Z,55.41
2023-01-29T19:59:10.708Z,55.60
2023-01-29T20:01:41.885Z,56.40
2023-01-29T20:04:12.649Z,56.68
2023-01-29T20:06:43.227Z,56.73
2023-01-29T20:09:14.021Z,56.49
2023-01-29T20:11:46.948Z,57.09
2023-01-29T20:14:17.547Z,56.78
2023-01-29T20:16:47.828Z,56.74
2023-01-29T20:19:20.249Z,56.67
2023-01-29T20:21:51.888Z,56.95
2023-01-29T20:24:23.622Z,57.31
2023-01-29T20:26:56.982Z,57.44
2023-01-29T20:29:29.641Z,56.93
2023-01-29T20:32:00.542Z,57.16
2023-01-29T20:34:33.354Z,57.03
2023-01-29T20:37:04.191Z,56.78
2023-01-29T20:39:34.963Z,56.52
2023-01-29T20:42:08.391Z,56.45
2023-01-29T20:44:38.946Z,56.36
2023-01-29T20:47:09.456Z,56.46
2023-01-29T20:49:40.176Z,56.83
2023-01-29T20:52:11.461Z,56.82
2023-01-29T20:54:41.741Z,56.56
2023-01-29T20:57:14.958Z,57.06
2023-01-29T20:59:48.604Z,56.71
2023-01-29T21:02:20.282Z,56.92
2023-01-29T21:04:50.566Z,57.02
2023-01-29T21:07:21.900Z,57.46
2023-01-29T21:09:55.286Z,56.98
2023-01-29T21:12:28.442Z,57.33
2023-01-29T21:15:01.988Z,57.83
2023-01-29T21:17:32.474Z,57.71
2023-01-29T21:20:05.482Z,58.19
2023-01-29T21:22:42.532Z,57.81
2023-01-29T21:25:14.306Z,57.88
2023-01-29T21:27:47.494Z,57.87
2023-01-29T21:30:19.005Z,57.59
2023-01-29T21:32:51.087Z,57.18
2023-01-29T21:35:21.689Z,57.05
2023-01-29T21:37:52.468Z,57.36
2023-01-29T21:40:25.388Z,57.40
2023-01-29T21:43:10.588Z,56.89
2023-01-29T21:45:41.450Z,56.93
2023-01-29T21:48:12.634Z,56.78
2023-01-29T21:50:43.329Z,56.89
2023-01-29T21:53:13.743Z,57.04
2023-01-29T21:55:44.541Z,57.04
2023-01-29T21:58:20.010Z,57.04
2023-01-29T22:00:51.059Z,56.92
2023-01-29T22:03:21.502Z,57.13
2023-01-29T22:05:54.034Z,57.53
2023-01-29T22:08:24.291Z,56.91
2023-01-29T22:10:54.743Z,57.43
2023-01-29T22:13:27.904Z,57.07
2023-01-29T22:15:58.587Z,57.13
2023-01-29T22:18:28.980Z,56.75
2023-01-29T22:21:02.785Z,56.95
2023-01-29T22:23:33.813Z,56.97
2023-01-29T22:26:09.175Z,56.70
2023-01-29T22:28:42.535Z,57.11
2023-01-29T22:31:13.273Z,57.15
2023-01-29T22:33:43.463Z,57.33
2023-01-29T22:36:13.730Z,56.98
2023-01-29T22:38:45.446Z,56.64
2023-01-29T22:41:16.413Z,57.11
2023-01-29T22:43:49.349Z,57.02
2023-01-29T22:46:19.487Z,57.32
2023-01-29T22:48:50.582Z,57.45
2023-01-29T22:51:20.745Z,57.66
2023-01-29T22:53:53.571Z,57.60
2023-01-29T22:56:26.412Z,57.24
2023-01-29T22:59:01.108Z,57.67
2023-01-29T23:01:33.463Z,57.88
2023-01-29T23:04:03.817Z,57.91
2023-01-29T23:06:34.111Z,57.78
2023-01-29T23:09:04.443Z,58.17
2023-01-29T23:11:34.723Z,58.40
2023-01-29T23:14:07.667Z,58.03
2023-01-29T23:16:37.843Z,58.21
2023-01-29T23:19:08.361Z,58.17
2023-01-29T23:21:39.666Z,58.49
2023-01-29T23:24:11.362Z,58.50
2023-01-29T23:26:54.064Z,58.77
2023-01-29T23:29:26.993Z,58.90
2023-01-29T23:31:57.212Z,59.15
2023-01-29T23:34:27.446Z,58.96
2023-01-29T23:36:57.739Z,58.72
2023-01-29T23:39:27.933Z,58.77
2023-01-29T23:41:58.445Z,59.02
2023-01-29T23:44:31.474Z,59.04
2023-01-29T23:47:02.226Z,59.13
2023-01-29T23:49:32.510Z,58.98
2023-01-29T23:52:03.317Z,59.03
2023-01-29T23:54:33.670Z,59.30
2023-01-29T23:57:03.878Z,58.79
2023-01-29T23:59:36.782Z,58.36
